Tiempo atmosférico en la estación meteorológica de Morón De Almazán , Soria (978 m.)



Fecha
DESCASC
Temp. máxima en grados centígrados (hora)
DESCASC
Temp. mínima en grados centígrados (hora)
DESCASC
Temp. media en grados centígrados
DESCASC
Racha de viento máxima en m/sg (hora)
DESCASC
Velocidad máxima media en intervalos de 10 minutos(hora)
DESCASC
Precipitaciones diarias en mm
DESCASC
Precipitaciones de 00:00 a 06:00 en mm
DESCASC
Precipitaciones de 06:00 a 12:00 en mm
DESCASC
Precipitaciones de 12:00 a 18:00 en mm
DESCASC
Precipitaciones de 18:00 a 24:00 en mm
DESCASC
06-07-2020 30.1 (16:00) 11 (05:40) 20.6 11.11 (19:30) 7.5 (19:50) 0 0 0 0 0
05-07-2020 33.8 (19:50) 7.5 (06:20) 20.6 8.06 (21:10) 5 (21:00) 0 0 0 0 0
04-07-2020 31.8 (18:00) 4.2 (06:50) 18 8.06 (20:40) 5.56 (20:40) 0 0 0 0 0
03-07-2020 28.1 (17:50) 10.4 (07:00) 19.3 11.11 (00:50) 7.22 (00:20) 0 0 0 0 0
02-07-2020 29 (16:40) 9.4 (00:00) 19.2 12.5 (22:20) 8.33 (22:30) 0 0 0 0 0
01-07-2020 31 (18:30) 12.3 (00:00) 21.7 10.83 (12:30) 6.11 (16:50) 0 0 0 0 0
30-06-2020 35 (18:00) 12.2 (00:00) 23.6 11.67 (16:40) 6.39 (16:50) 0 0 0 0 0
29-06-2020 33.6 (17:40) 10.9 (00:00) 22.2 9.72 (15:40) 5.56 (20:00) 0 0 0 0 0
28-06-2020 31.2 (17:20) 9.6 (00:00) 20.4 8.33 (14:10) 5.28 (23:30) 0 0 0 0 0
27-06-2020 29.2 (16:30) 8.6 (00:00) 18.9 10 (18:00) 5.83 (18:40) 0 0 0 0 0
26-06-2020 28.9 (17:00) 12.1 (00:00) 20.5 11.11 (18:20) 6.67 (18:20) 0 0 0 0 0
25-06-2020 31.9 (16:00) 11.1 (00:00) 21.5 11.11 (17:50) 6.39 (17:50) 2.4 0 0 0 2.4
24-06-2020 31.8 (17:20) 12.5 (00:00) 22.1 13.89 (14:20) 8.61 (14:40) 0 0 0 0 0
23-06-2020 33.8 (15:40) 9.1 (00:00) 21.4 10.56 (18:00) 7.22 (18:00) 0 0 0 0 0
22-06-2020 32.2 (19:10) 12.1 (00:00) 22.2 10.83 (00:30) 6.67 (00:30) 0 0 0 0 0
21-06-2020 29.5 (17:50) 8 (00:00) 18.8 11.94 (23:59) 6.94 (22:40) 0 0 0 0 0
20-06-2020 28.8 (16:50) 7.4 (00:00) 18.1 9.72 (13:00) 4.72 (19:50) 0 0 0 0 0
19-06-2020 27.6 (19:20) 5.8 (00:00) 16.7 8.33 (18:10) 4.17 (17:30) 0 0 0 0 0
18-06-2020 24.1 (18:30) 6.5 (06:50) 15.3 8.89 (03:00) 5.56 (19:40) 0.6 0.6 0 0 0
17-06-2020 21.9 (18:10) 6.1 (00:00) 14 8.33 (14:20) 4.17 (14:20) 0 0 0 0 0
16-06-2020 20.9 (17:20) 10.6 (00:00) 15.8 15.83 (18:10) 9.72 (18:20) 3.8 3 0.8 0 0
15-06-2020 22.9 (15:50) 6.4 (00:00) 14.6 11.39 (19:20) 5 (19:20) 3.8 0 0 0 3.8
14-06-2020 21.1 (15:40) 5.1 (00:00) 13.1 7.78 (19:00) 5.28 (19:00) 0 0 0 0 0
13-06-2020 19.3 (16:50) 7.7 (00:00) 13.5 11.67 (14:40) 7.5 (14:00) 0 0 0 0 0
12-06-2020 17.4 (16:00) 4.2 (00:00) 10.8 16.11 (17:00) 8.33 (17:30) 0.4 0 0 0 0.4
11-06-2020 20.3 (17:30) 5.7 (00:00) 13 12.78 (17:30) 8.89 (18:10) 0.6 0 0 0 0.6

Gráficas

Temp. máximas Temp. mínimas Temp. medias Precipitaciones Rachas de viento máximas Velocidades máximas media en intervalos de 10 minutos

Datos horarios

Fecha y hora oficial Temperatura (ºC) Velocidad del viento (km/h) Dirección del viento Racha (km/h) Dirección de racha Precipitación (mm) Presión (hPa) Tendencia (hPa) Humedad (%)
2020-07-10 23:00:00 18.4 8 Nordeste 16 Nordeste 0 -- -- 71
2020-07-10 22:00:00 20.4 10 Nordeste 27 Nordeste 0 -- -- 64
2020-07-10 21:00:00 24.2 17 Nordeste 31 Nordeste 0 -- -- 53
2020-07-10 20:00:00 25.2 18 Nordeste 30 Nordeste 0 -- -- 48
2020-07-10 19:00:00 30.5 5 Sudeste 17 Oeste 0 -- -- 29
2020-07-10 18:00:00 30.2 9 Sur 21 Sur 0 -- -- 30
2020-07-10 17:00:00 30.6 7 Este 22 Este 0 -- -- 28
2020-07-10 16:00:00 29.2 9 Sudeste 24 Sur 0 -- -- 33
2020-07-10 15:00:00 28.1 9 Sudeste 25 Sudeste 0 -- -- 36
2020-07-10 14:00:00 27.6 9 Este 24 Este 0 -- -- 40
2020-07-10 13:00:00 24.9 13 Sudeste 27 Sudeste 0 -- -- 47
2020-07-10 12:00:00 24.3 16 Este 26 Este 0 -- -- 49
2020-07-10 11:00:00 22.6 11 Este 18 Este 0 -- -- 56
2020-07-10 10:00:00 20.3 8 Sudeste 17 Sudeste 0 -- -- 67
2020-07-10 09:00:00 17.6 4 Este 7 Este 0 -- -- 79
2020-07-10 08:00:00 13.5 5 Nordeste 6 Nordeste 0 -- -- 96
2020-07-10 07:00:00 10.6 0 Calma 5 Nordeste 0 -- -- 97
2020-07-10 06:00:00 11 0 Calma 11 Este 0 -- -- 95
2020-07-10 05:00:00 12.2 5 Sudeste 10 Sudeste 0 -- -- 95
2020-07-10 04:00:00 11.2 2 Sudeste 13 Sur 0 -- -- 96
2020-07-10 03:00:00 10.6 5 Nordeste 7 Nordeste 0 -- -- 97
2020-07-10 02:00:00 11.2 3 Nordeste 6 Nordeste 0 -- -- 95
2020-07-10 01:00:00 12.5 4 Este 10 Este 0 -- -- 90
2020-07-10 00:00:00 15.8 8 Sudeste 26 Este 0 -- -- 77
2020-07-09 23:00:00 16.7 15 Sudeste 37 Sur 0 -- -- 70
2020-07-09 22:00:00 16.3 11 Sur 24 Sur 0.6 -- -- 81
2020-07-09 21:00:00 16.6 12 Sudeste 21 Sudeste 1 -- -- 78
2020-07-09 20:00:00 18.7 7 Noroeste 21 Oeste 0 -- -- 66
2020-07-09 19:00:00 21.5 10 Oeste 21 Noroeste 0 -- -- 52
2020-07-09 18:00:00 22.2 13 Oeste 21 Sudoeste 0.2 -- -- 51
2020-07-09 17:00:00 19.9 14 Oeste 41 Sudeste 0.2 -- -- 66
2020-07-09 16:00:00 24.3 26 Sudeste 49 Este 0 -- -- 41
2020-07-09 15:00:00 29.2 21 Este 35 Este 0 -- -- 33
2020-07-09 14:00:00 29.6 16 Sudeste 32 Sudeste 0 -- -- 33
2020-07-09 13:00:00 27.6 19 Este 34 Este 0 -- -- 34
2020-07-09 12:00:00 28.5 11 Este 23 Este 0 -- -- 31
2020-07-09 11:00:00 26.1 11 Este 18 Este 0 -- -- 37
2020-07-09 10:00:00 23.2 3 Sudeste 12 Nordeste 0 -- -- 51
2020-07-09 09:00:00 16.7 5 Nordeste 7 Este 0.2 -- -- 81
2020-07-09 08:00:00 15.6 4 Sur 12 Sur 0.2 -- -- 77
2020-07-09 07:00:00 12.8 0 Calma 12 Noroeste 0 -- -- 79
2020-07-09 06:00:00 14.1 5 Sudoeste 11 Sur 0 -- -- 77
2020-07-09 05:00:00 14.2 4 Noroeste 10 Este 0 -- -- 75
2020-07-09 04:00:00 14.3 7 Este 12 Sudeste 0 -- -- 75
2020-07-09 03:00:00 14 5 Noroeste 9 Oeste 0 -- -- 75
2020-07-09 02:00:00 16.9 4 Sudoeste 14 Oeste 0 -- -- 64
2020-07-09 01:00:00 18.6 11 Oeste 32 Oeste 0 -- -- 57
2020-07-09 00:00:00 19 7 Oeste 34 Oeste 0 -- -- 57
2020-07-08 23:00:00 21.6 9 Este 29 Este 0 -- -- 49
2020-07-08 22:00:00 22 18 Este 36 Este 0 -- -- 47
2020-07-08 21:00:00 23.1 20 Sudeste 44 Sudeste 0 -- -- 43
2020-07-08 20:00:00 24.9 21 Este 46 Sudeste 0 -- -- 35
2020-07-08 19:00:00 24.8 28 Este 40 Este 0 -- -- 38
2020-07-08 18:00:00 26.8 14 Este 73 Sudoeste 0.2 -- -- 30
2020-07-08 17:00:00 29.6 12 Oeste 26 Noroeste 0 -- -- 24
2020-07-08 16:00:00 33.5 5 Noroeste 16 Oeste 0 -- -- 19
2020-07-08 15:00:00 33 9 Oeste 15 Noroeste 0 -- -- 18
2020-07-08 14:00:00 32.2 6 Oeste 21 Este 0 -- -- 24
2020-07-08 13:00:00 30.8 14 Sudeste 28 Sudeste 0 -- -- 25
2020-07-08 12:00:00 26.8 13 Este 24 Nordeste 0 -- -- 33
2020-07-08 11:00:00 26 24 Sur 41 Sur 0 -- -- 28
2020-07-08 10:00:00 23.1 8 Sudeste 25 Sudeste 0 -- -- 40
2020-07-08 09:00:00 20.4 10 Este 26 Este 0 -- -- 45
2020-07-08 08:00:00 17.8 5 Nordeste 42 Oeste 0 -- -- 52
2020-07-08 07:00:00 12.6 4 Noroeste 11 Este 0 -- -- 73
2020-07-08 06:00:00 12.6 3 Sur 6 Nordeste 0 -- -- 69
2020-07-08 05:00:00 12.9 6 Nordeste 8 Nordeste 0 -- -- 66
2020-07-08 04:00:00 14.5 6 Nordeste 11 Este 0 -- -- 58
2020-07-08 03:00:00 17.1 6 Este 14 Este 0 -- -- 48
2020-07-08 02:00:00 16.4 8 Este 13 Este 0 -- -- 51
2020-07-08 01:00:00 17.3 6 Este 15 Este 0 -- -- 52
2020-07-08 00:00:00 18.1 8 Este 13 Este 0 -- -- 50
2020-07-07 23:00:00 20 4 Nordeste 17 Este 0 -- -- 42
2020-07-07 22:00:00 24.5 12 Este 25 Este 0 -- -- 32
2020-07-07 21:00:00 29.2 13 Este 25 Este 0 -- -- 29
2020-07-07 20:00:00 31.8 16 Este 38 Nordeste 0 -- -- 26
2020-07-07 19:00:00 34.5 12 Noroeste 38 Noroeste 0 -- -- 24
2020-07-07 18:00:00 34.7 17 Oeste 33 Oeste 0 -- -- 22
2020-07-07 17:00:00 34.3 17 Noroeste 35 Oeste 0 -- -- 23
2020-07-07 16:00:00 34.3 16 Oeste 33 Oeste 0 -- -- 25
2020-07-07 15:00:00 33 17 Oeste 30 Noroeste 0 -- -- 28
2020-07-07 14:00:00 31.9 13 Oeste 27 Oeste 0 -- -- 31
2020-07-07 13:00:00 30.6 12 Noroeste 22 Oeste 0 -- -- 31
2020-07-07 12:00:00 28.1 5 Noroeste 11 Noroeste 0 -- -- 23
2020-07-07 11:00:00 25.3 4 Noroeste 12 Oeste 0 -- -- 19
2020-07-07 10:00:00 21.6 3 Oeste 8 Oeste 0 -- -- 25
2020-07-07 09:00:00 17.1 2 Oeste 4 Oeste 0 -- -- 33
2020-07-07 08:00:00 12.2 2 Este 4 Nordeste 0 -- -- 63
2020-07-07 07:00:00 7.6 2 Este 4 Nordeste 0 -- -- 84
2020-07-07 06:00:00 7.1 0 Calma 4 Este 0 -- -- 84
2020-07-07 05:00:00 8 2 Este 5 Este 0 -- -- 81
2020-07-07 04:00:00 9.1 3 Este 4 Este 0 -- -- 73
2020-07-07 03:00:00 11.1 3 Este 7 Sur 0 -- -- 63
2020-07-07 02:00:00 12.8 4 Sudoeste 7 Nordeste 0 -- -- 59
2020-07-07 01:00:00 15.6 5 Este 12 Este 0 -- -- 49
2020-07-07 00:00:00 16.4 3 Este 21 Nordeste 0 -- -- 57
2020-07-06 23:00:00 17.6 11 Nordeste 36 Nordeste 0 -- -- 60
2020-07-06 22:00:00 19 24 Nordeste 35 Nordeste 0 -- -- 58
2020-07-06 21:00:00 22.1 24 Nordeste 38 Nordeste 0 -- -- 51
2020-07-06 20:00:00 24.2 27 Nordeste 40 Norte 0 -- -- 46
2020-07-06 19:00:00 26.8 26 Nordeste 39 Nordeste 0 -- -- 38
2020-07-06 18:00:00 29 22 Norte 33 Norte 0 -- -- 34
2020-07-06 17:00:00 29.7 16 Nordeste 30 Nordeste 0 -- -- 34
2020-07-06 16:00:00 30.1 16 Norte 32 Norte 0 -- -- 35
2020-07-06 15:00:00 28.7 18 Nordeste 32 Noroeste 0 -- -- 39
2020-07-06 14:00:00 28.7 15 Norte 32 Norte 0 -- -- 39
2020-07-06 13:00:00 27.3 12 Norte 23 Norte 0 -- -- 39
2020-07-06 12:00:00 26.3 13 Nordeste 27 Noroeste 0 -- -- 41
2020-07-06 11:00:00 24.6 14 Nordeste 26 Norte 0 -- -- 44
2020-07-06 10:00:00 23.1 12 Nordeste 23 Norte 0 -- -- 47
2020-07-06 09:00:00 21 8 Norte 22 Norte 0 -- -- 52
2020-07-06 08:00:00 15 2 Noroeste 5 Noroeste 0 -- -- 76
2020-07-06 07:00:00 11.2 0 Calma 8 Nordeste 0 -- -- 88
2020-07-06 06:00:00 11.6 3 Sudeste 7 Este 0 -- -- 90
2020-07-06 05:00:00 12.6 2 Sudeste 4 Este 0 -- -- 85
2020-07-06 04:00:00 13.4 0 Calma 4 Este 0 -- -- 82
2020-07-06 03:00:00 14.8 0 Calma 6 Este 0 -- -- 77
2020-07-06 02:00:00 17.8 3 Sudeste 15 Este 0 -- -- 67
2020-07-06 01:00:00 19.2 4 Sudeste 26 Nordeste 0 -- -- 62
2020-07-06 00:00:00 20.5 15 Nordeste 22 Nordeste 0 -- -- 58
2020-07-05 23:00:00 21.8 11 Nordeste 23 Nordeste 0 -- -- 55
2020-07-05 22:00:00 24.4 13 Nordeste 29 Nordeste 0 -- -- 44
2020-07-05 21:00:00 28.2 18 Nordeste 27 Norte 0 -- -- 36
2020-07-05 20:00:00 32.9 6 Noroeste 14 Oeste 0 -- -- 22
2020-07-05 19:00:00 33.3 5 Oeste 23 Norte 0 -- -- 20
2020-07-05 18:00:00 33.3 9 Oeste 18 Sudoeste 0 -- -- 20
2020-07-05 17:00:00 32.9 13 Oeste 22 Oeste 0 -- -- 19
2020-07-05 16:00:00 31.8 6 Sur 21 Norte 0 -- -- 20
2020-07-05 15:00:00 31.6 8 Nordeste 20 Norte 0 -- -- 21
2020-07-05 14:00:00 30.2 8 Noroeste 19 Noroeste 0 -- -- 24
2020-07-05 13:00:00 29.5 4 Oeste 19 Norte 0 -- -- 26
2020-07-05 12:00:00 28.2 5 Nordeste 19 Nordeste 0 -- -- 31
2020-07-05 11:00:00 25.6 5 Noroeste 9 Noroeste 0 -- -- 36
2020-07-05 10:00:00 21.4 4 Sudoeste 8 Noroeste 0 -- -- 47
2020-07-05 09:00:00 16.6 4 Oeste 6 Noroeste 0 -- -- 58
2020-07-05 08:00:00 12.1 0 Calma 4 Este 0 -- -- 74
2020-07-05 07:00:00 7.6 0 Calma 3 Este 0 -- -- 88
2020-07-05 06:00:00 7.9 0 Calma 6 Este 0 -- -- 85
2020-07-05 05:00:00 9 5 Este 8 Este 0 -- -- 81
2020-07-05 04:00:00 10.1 4 Este 7 Este 0 -- -- 76
2020-07-05 03:00:00 11.3 7 Este 10 Sudeste 0 -- -- 72
2020-07-05 02:00:00 13.6 5 Sur 10 Sur 0 -- -- 65
2020-07-05 01:00:00 15.8 2 Sur 25 Nordeste 0 -- -- 56
2020-07-05 00:00:00 18.3 17 Nordeste 26 Nordeste 0 -- -- 46
2020-07-04 23:00:00 18.9 10 Nordeste 20 Nordeste 0 -- -- 39
2020-07-04 22:00:00 21 14 Nordeste 28 Nordeste 0 -- -- 35
2020-07-04 21:00:00 25.1 19 Nordeste 29 Nordeste 0 -- -- 25
2020-07-04 20:00:00 29.2 14 Nordeste 20 Nordeste 0 -- -- 19
2020-07-04 19:00:00 30.8 10 Nordeste 19 Oeste 0 -- -- 15
2020-07-04 18:00:00 31.8 7 Oeste 20 Noroeste 0 -- -- 15
2020-07-04 17:00:00 29.4 9 Norte 21 Norte 0 -- -- 18
2020-07-04 16:00:00 29.5 9 Oeste 25 Norte 0 -- -- 19
2020-07-04 15:00:00 28.1 6 Sudoeste 22 Noroeste 0 -- -- 19
2020-07-04 14:00:00 27 7 Oeste 19 Oeste 0 -- -- 19
2020-07-04 13:00:00 25.9 8 Oeste 18 Oeste 0 -- -- 18
2020-07-04 12:00:00 23.5 3 Sudeste 14 Noroeste 0 -- -- 20
2020-07-04 11:00:00 21.2 7 Oeste 14 Oeste 0 -- -- 35
2020-07-04 10:00:00 18 6 Oeste 9 Oeste 0 -- -- 51
2020-07-04 09:00:00 13.6 0 Calma 4 Oeste 0 -- -- 69
2020-07-04 08:00:00 8.5 0 Calma 4 Este 0 -- -- 86
2020-07-04 07:00:00 4.2 3 Nordeste 4 Nordeste 0 -- -- 95
2020-07-04 06:00:00 5.1 2 Sudeste 5 Nordeste 0 -- -- 96
2020-07-04 05:00:00 5.9 2 Sudeste 6 Nordeste 0 -- -- 94
2020-07-04 04:00:00 6.5 3 Nordeste 6 Este 0 -- -- 93
2020-07-04 03:00:00 7.7 0 Calma 5 Sur 0 -- -- 88
2020-07-04 02:00:00 8.2 0 Calma 4 Oeste 0 -- -- 90
2020-07-04 01:00:00 9.7 0 Calma 4 Nordeste 0 -- -- 84
2020-07-04 00:00:00 12.9 2 Sudeste 18 Nordeste 0 -- -- 72
2020-07-03 23:00:00 14.9 13 Nordeste 19 Nordeste 0 -- -- 65
2020-07-03 22:00:00 17.4 12 Nordeste 22 Nordeste 0 -- -- 57
2020-07-03 21:00:00 22.1 14 Nordeste 27 Norte 0 -- -- 44
2020-07-03 20:00:00 26.5 20 Noroeste 31 Oeste 0 -- -- 23
2020-07-03 19:00:00 27.5 15 Oeste 28 Oeste 0 -- -- 20
2020-07-03 18:00:00 27.8 11 Oeste 24 Oeste 0 -- -- 24
2020-07-03 17:00:00 26.3 8 Noroeste 21 Oeste 0 -- -- 26
2020-07-03 16:00:00 25.2 5 Noroeste 21 Noroeste 0 -- -- 32
2020-07-03 15:00:00 24.1 7 Oeste 22 Noroeste 0 -- -- 33
2020-07-03 14:00:00 23 10 Noroeste 19 Nordeste 0 -- -- 37
2020-07-03 13:00:00 22.2 9 Nordeste 21 Este 0 -- -- 41
2020-07-03 12:00:00 19.8 7 Norte 29 Este 0 -- -- 48
2020-07-03 11:00:00 18.3 9 Nordeste 23 Nordeste 0 -- -- 53
2020-07-03 10:00:00 16.1 15 Nordeste 28 Nordeste 0 -- -- 60
2020-07-03 09:00:00 14 18 Nordeste 31 Nordeste 0 -- -- 69
2020-07-03 08:00:00 12.2 8 Nordeste 17 Nordeste 0 -- -- 79
2020-07-03 07:00:00 10.4 6 Nordeste 30 Nordeste 0 -- -- 86
2020-07-03 06:00:00 10.8 17 Nordeste 30 Nordeste 0 -- -- 85
2020-07-03 05:00:00 11.1 22 Nordeste 37 Nordeste 0 -- -- 84
2020-07-03 04:00:00 11.3 23 Nordeste 35 Norte 0 -- -- 84
2020-07-03 03:00:00 12 22 Nordeste 35 Nordeste 0 -- -- 80
2020-07-03 02:00:00 12.3 22 Nordeste 36 Norte 0 -- -- 80
2020-07-03 01:00:00 12.5 23 Nordeste 40 Nordeste 0 -- -- 81
2020-07-03 00:00:00 12.8 24 Nordeste 39 Nordeste 0 -- -- 82
2020-07-02 23:00:00 13.2 25 Nordeste 45 Nordeste 0 -- -- 83
2020-07-02 22:00:00 14.9 27 Nordeste 42 Nordeste 0 -- -- 77
2020-07-02 21:00:00 17.5 26 Nordeste 40 Nordeste 0 -- -- 70
2020-07-02 20:00:00 21.1 22 Nordeste 33 Nordeste 0 -- -- 59
2020-07-02 19:00:00 23.3 21 Nordeste 32 Nordeste 0 -- -- 53
2020-07-02 18:00:00 26.2 14 Oeste 33 Oeste 0 -- -- 39
2020-07-02 17:00:00 28.4 19 Oeste 36 Oeste 0 -- -- 36
2020-07-02 16:00:00 28.6 20 Oeste 35 Oeste 0 -- -- 37
2020-07-02 15:00:00 27.6 16 Noroeste 33 Oeste 0 -- -- 38
2020-07-02 14:00:00 27 12 Noroeste 28 Oeste 0 -- -- 39
2020-07-02 13:00:00 26.9 13 Oeste 25 Oeste 0 -- -- 41
2020-07-02 12:00:00 25.3 12 Oeste 22 Oeste 0 -- -- 45
2020-07-02 11:00:00 23.1 8 Oeste 23 Oeste 0 -- -- 51
2020-07-02 10:00:00 20.4 15 Oeste 23 Oeste 0 -- -- 60
2020-07-02 09:00:00 15.8 5 Oeste 8 Oeste 0 -- -- 85
2020-07-02 08:00:00 13.2 0 Calma 4 Nordeste 0 -- -- 93
2020-07-02 07:00:00 9.5 3 Este 4 Nordeste 0 -- -- 97
2020-07-02 06:00:00 10.1 0 Calma 4 Este 0 -- -- 96
2020-07-02 05:00:00 10.7 2 Este 5 Nordeste 0 -- -- 94
2020-07-02 04:00:00 11.6 0 Calma 5 Este 0 -- -- 94
2020-07-02 03:00:00 12.9 2 Este 5 Este 0 -- -- 91
2020-07-02 02:00:00 13.4 0 Calma 6 Noroeste 0 -- -- 89
2020-07-02 01:00:00 15.4 3 Este 8 Noroeste 0 -- -- 85
2020-07-02 00:00:00 16 2 Este 6 Este 0 -- -- 71
2020-07-01 23:00:00 17.2 3 Sudeste 6 Norte 0 -- -- 60
2020-07-01 22:00:00 22 2 Noroeste 24 Oeste 0 -- -- 43
2020-07-01 21:00:00 28 16 Oeste 34 Oeste 0 -- -- 28
2020-07-01 20:00:00 30.4 19 Oeste 37 Oeste 0 -- -- 27
2020-07-01 19:00:00 30.5 10 Noroeste 18 Oeste 0 -- -- 32
2020-07-01 18:00:00 28.5 7 Oeste 18 Oeste 0 -- -- 37
2020-07-01 17:00:00 27.1 14 Oeste 36 Oeste 0 -- -- 38
2020-07-01 16:00:00 28.4 15 Oeste 27 Sudoeste 0 -- -- 37
2020-07-01 15:00:00 30.2 11 Sudoeste 32 Oeste 0 -- -- 32
2020-07-01 14:00:00 29.8 20 Oeste 32 Oeste 0 -- -- 35
2020-07-01 13:00:00 29.4 16 Oeste 39 Noroeste 0 -- -- 37
2020-07-01 12:00:00 28.1 10 Oeste 23 Oeste 0 -- -- 42
2020-07-01 11:00:00 25.6 13 Oeste 23 Oeste 0 -- -- 45
2020-07-01 10:00:00 22.9 17 Oeste 25 Noroeste 0 -- -- 57
2020-07-01 09:00:00 20 5 Noroeste 9 Noroeste 0 -- -- 71
2020-07-01 08:00:00 15.2 0 Calma 3 Noroeste 0 -- -- 88
2020-07-01 07:00:00 12.5 0 Calma 4 Este 0 -- -- 94
2020-07-01 06:00:00 13.2 3 Nordeste 5 Nordeste 0 -- -- 91
2020-07-01 05:00:00 13.9 2 Este 4 Este 0 -- -- 90
2020-07-01 04:00:00 14.3 2 Sudeste 5 Este 0 -- -- 89
2020-07-01 03:00:00 16.2 0 Calma 9 Nordeste 0 -- -- 81
2020-07-01 02:00:00 17.7 8 Este 11 Este 0 -- -- 74
2020-07-01 01:00:00 17.9 5 Este 11 Nordeste 0 -- -- 71
2020-07-01 00:00:00 18 3 Sur 18 Oeste 0 -- -- 73
2020-06-30 23:00:00 17.2 12 Oeste 15 Oeste 0 -- -- 76
2020-06-30 22:00:00 21.4 5 Este 21 Nordeste 0 -- -- 60
2020-06-30 21:00:00 23.8 12 Nordeste 26 Norte 0 -- -- 52
2020-06-30 20:00:00 27.6 17 Nordeste 30 Este 0 -- -- 40
2020-06-30 19:00:00 30 19 Este 37 Sur 0 -- -- 35
2020-06-30 18:00:00 35 5 Sur 23 Norte 0 -- -- 23
2020-06-30 17:00:00 33.4 17 Oeste 42 Sudoeste 0 -- -- 27
2020-06-30 16:00:00 33.1 21 Sudoeste 36 Sudoeste 0 -- -- 26
2020-06-30 15:00:00 31.1 10 Sur 27 Este 0 -- -- 35
2020-06-30 14:00:00 31.2 12 Este 22 Este 0 -- -- 35
2020-06-30 13:00:00 29.6 8 Este 18 Sudeste 0 -- -- 37
2020-06-30 12:00:00 26.4 8 Este 21 Sudeste 0 -- -- 42
2020-06-30 11:00:00 23.9 12 Este 25 Este 0 -- -- 46
2020-06-30 10:00:00 21.4 14 Este 24 Este 0 -- -- 48
2020-06-30 09:00:00 19.3 13 Este 24 Este 0 -- -- 55
2020-06-30 08:00:00 16.8 5 Sudeste 12 Este 0 -- -- 78
2020-06-30 07:00:00 13.1 5 Este 9 Este 0 -- -- 94
2020-06-30 06:00:00 12.2 2 Nordeste 5 Este 0 -- -- 92
2020-06-30 05:00:00 12.9 2 Nordeste 6 Este 0 -- -- 88
2020-06-30 04:00:00 13.4 6 Este 9 Este 0 -- -- 85
2020-06-30 03:00:00 15.4 7 Este 12 Nordeste 0 -- -- 75
2020-06-30 02:00:00 15.6 7 Este 10 Nordeste 0 -- -- 83
2020-06-30 01:00:00 16.7 8 Este 13 Este 0 -- -- 83
2020-06-30 00:00:00 17.6 7 Nordeste 17 Nordeste 0 -- -- 79
2020-06-29 23:00:00 19 9 Nordeste 21 Nordeste 0 -- -- 74
2020-06-29 22:00:00 21.2 13 Nordeste 26 Este 0 -- -- 66
2020-06-29 21:00:00 26.4 17 Este 30 Este 0 -- -- 50
2020-06-29 20:00:00 28.4 20 Este 31 Este 0 -- -- 46
2020-06-29 19:00:00 30.8 8 Noroeste 23 Noroeste 0 -- -- 34
2020-06-29 18:00:00 30.9 12 Sudoeste 28 Oeste 0 -- -- 33
2020-06-29 17:00:00 32.3 14 Sudoeste 32 Sudoeste 0 -- -- 29
2020-06-29 16:00:00 32.5 15 Oeste 35 Oeste 0 -- -- 29
2020-06-29 15:00:00 31.4 13 Sudoeste 24 Oeste 0 -- -- 30
2020-06-29 14:00:00 30 8 Sudoeste 20 Sudoeste 0 -- -- 37
2020-06-29 13:00:00 28.5 6 Noroeste 17 Sur 0 -- -- 43
2020-06-29 12:00:00 26.7 4 Sudoeste 10 Este 0 -- -- 47
2020-06-29 11:00:00 24.4 3 Oeste 12 Sudeste 0 -- -- 54
2020-06-29 10:00:00 22 6 Sudeste 13 Sudeste 0 -- -- 63
2020-06-29 09:00:00 19.5 5 Este 8 Este 0 -- -- 71
2020-06-29 08:00:00 15 0 Calma 5 Este 0 -- -- 89
2020-06-29 07:00:00 11.2 4 Este 5 Nordeste 0 -- -- 97
2020-06-29 06:00:00 11.4 0 Calma 4 Este 0 -- -- 96
2020-06-29 05:00:00 11.9 0 Calma 4 Este 0 -- -- 95
2020-06-29 04:00:00 12.9 4 Este 5 Este 0 -- -- 92
2020-06-29 03:00:00 13.8 0 Calma 4 Sudoeste 0 -- -- 90
2020-06-29 02:00:00 16.5 2 Sudeste 10 Este 0 -- -- 81
2020-06-29 01:00:00 18.1 6 Este 14 Nordeste 0 -- -- 74
2020-06-29 00:00:00 19.8 3 Este 29 Nordeste 0 -- -- 69
2020-06-28 23:00:00 21.3 12 Nordeste 19 Nordeste 0 -- -- 64
2020-06-28 22:00:00 21.6 0 Calma 8 Oeste 0 -- -- 58
2020-06-28 21:00:00 26 8 Oeste 19 Oeste 0 -- -- 45
2020-06-28 20:00:00 30.3 10 Oeste 18 Sudoeste 0 -- -- 35
2020-06-28 19:00:00 30.2 11 Oeste 22 Oeste 0 -- -- 36
2020-06-28 18:00:00 30.4 4 Sudeste 21 Noroeste 0 -- -- 36
2020-06-28 17:00:00 29.2 7 Noroeste 23 Oeste 0 -- -- 37
2020-06-28 16:00:00 27.8 13 Noroeste 24 Noroeste 0 -- -- 40
2020-06-28 15:00:00 28.2 6 Oeste 30 Oeste 0 -- -- 38
2020-06-28 14:00:00 28.3 9 Sudoeste 23 Oeste 0 -- -- 39
2020-06-28 13:00:00 27.3 6 Oeste 18 Oeste 0 -- -- 42
2020-06-28 12:00:00 25.2 10 Oeste 22 Oeste 0 -- -- 46
2020-06-28 11:00:00 23.5 9 Oeste 20 Noroeste 0 -- -- 51
2020-06-28 10:00:00 20.4 14 Oeste 21 Oeste 0 -- -- 63
2020-06-28 09:00:00 17.8 13 Oeste 21 Oeste 0 -- -- 73
2020-06-28 08:00:00 14.6 0 Calma 4 Oeste 0 -- -- 87
2020-06-28 07:00:00 10 0 Calma 4 Oeste 0 -- -- 97
2020-06-28 06:00:00 9.8 0 Calma 3 Noroeste 0 -- -- 96
2020-06-28 05:00:00 10.8 0 Calma 4 Este 0 -- -- 94
2020-06-28 04:00:00 11.3 0 Calma 6 Nordeste 0 -- -- 93
2020-06-28 03:00:00 11.8 3 Este 5 Este 0 -- -- 90
2020-06-28 02:00:00 12.4 2 Este 5 Sudeste 0 -- -- 89
2020-06-28 01:00:00 14 3 Sudeste 9 Nordeste 0 -- -- 84
2020-06-28 00:00:00 14.9 4 Este 7 Este 0 -- -- 80
2020-06-27 23:00:00 16.4 0 Calma 4 Oeste 0 -- -- 73
2020-06-27 22:00:00 20.2 3 Noroeste 13 Noroeste 0 -- -- 56
2020-06-27 21:00:00 25.7 9 Noroeste 22 Oeste 0 -- -- 41
2020-06-27 20:00:00 27.4 14 Oeste 25 Oeste 0 -- -- 37
2020-06-27 19:00:00 28.5 17 Oeste 31 Oeste 0 -- -- 35
2020-06-27 18:00:00 28.4 16 Noroeste 36 Oeste 0 -- -- 36
2020-06-27 17:00:00 27.8 13 Noroeste 31 Noroeste 0 -- -- 37
2020-06-27 16:00:00 27.9 15 Noroeste 34 Oeste 0 -- -- 38
2020-06-27 15:00:00 27.4 15 Oeste 31 Oeste 0 -- -- 41
2020-06-27 14:00:00 26.2 16 Oeste 30 Oeste 0 -- -- 43
2020-06-27 13:00:00 24.6 13 Oeste 28 Oeste 0 -- -- 47
2020-06-27 12:00:00 22.9 16 Oeste 28 Oeste 0 -- -- 51
2020-06-27 11:00:00 21 16 Oeste 30 Oeste 0 -- -- 58
2020-06-27 10:00:00 18.9 15 Oeste 28 Oeste 0 -- -- 65
2020-06-27 09:00:00 13.9 9 Oeste 19 Noroeste 0 -- -- 82
2020-06-27 08:00:00 12.6 3 Oeste 6 Oeste 0 -- -- 85
2020-06-27 07:00:00 8.8 3 Noroeste 5 Oeste 0 -- -- 90
2020-06-27 06:00:00 8.8 2 Noroeste 8 Oeste 0 -- -- 91
2020-06-27 05:00:00 9 0 Calma 4 Nordeste 0 -- -- 93
2020-06-27 04:00:00 10 2 Este 4 Este 0 -- -- 88
2020-06-27 03:00:00 10.2 0 Calma 5 Este 0 -- -- 89
2020-06-27 02:00:00 10.8 3 Este 4 Este 0 -- -- 87
2020-06-27 01:00:00 12.1 2 Sudeste 7 Nordeste 0 -- -- 82
2020-06-27 00:00:00 15.2 0 Calma 12 Noroeste 0 -- -- 70
2020-06-26 23:00:00 18.1 5 Sudeste 8 Sudeste 0 -- -- 61
2020-06-26 22:00:00 20.9 2 Noroeste 8 Oeste 0 -- -- 50
2020-06-26 21:00:00 23.5 7 Oeste 22 Oeste 0 -- -- 37
2020-06-26 20:00:00 25.6 18 Sudoeste 32 Sudoeste 0 -- -- 27
2020-06-26 19:00:00 27.6 17 Sudoeste 40 Sudoeste 0 -- -- 24
2020-06-26 18:00:00 27.1 22 Sudoeste 38 Sudoeste 0 -- -- 29
2020-06-26 17:00:00 28.9 19 Sudoeste 39 Sudoeste 0 -- -- 32
2020-06-26 16:00:00 26.8 18 Sudoeste 34 Sudoeste 0 -- -- 38
2020-06-26 15:00:00 27.9 19 Sudoeste 37 Sudoeste 0 -- -- 37
2020-06-26 14:00:00 28.1 19 Sudoeste 36 Sudoeste 0 -- -- 37
2020-06-26 13:00:00 26.8 18 Sudoeste 31 Sudoeste 0 -- -- 44
2020-06-26 12:00:00 25.3 11 Sur 24 Sur 0 -- -- 48
2020-06-26 11:00:00 23.2 15 Sur 25 Sur 0 -- -- 51
2020-06-26 10:00:00 21.1 5 Sudeste 10 Sudeste 0 -- -- 64
2020-06-26 09:00:00 17.9 6 Este 9 Este 0 -- -- 75
2020-06-26 08:00:00 15.2 4 Este 5 Este 0 -- -- 96
2020-06-26 07:00:00 12.2 2 Este 5 Este 0 -- -- 97
2020-06-26 06:00:00 12.5 0 Calma 3 Este 0 -- -- 96
2020-06-26 05:00:00 14.2 0 Calma 22 Este 0 -- -- 92
2020-06-26 04:00:00 15.8 13 Este 27 Sudeste 0 -- -- 88
2020-06-26 03:00:00 16.2 18 Este 30 Sudeste 0 -- -- 88
2020-06-26 02:00:00 16.5 13 Sudeste 26 Este 0 -- -- 90
2020-06-26 01:00:00 16.6 12 Este 23 Este 0 -- -- 90
2020-06-26 00:00:00 17 13 Sudeste 30 Sudeste 0.2 -- -- 89
2020-06-25 23:00:00 17.4 23 Este 37 Este 1.6 -- -- 84
2020-06-25 22:00:00 17.7 8 Sudeste 22 Nordeste 0 -- -- 79
2020-06-25 21:00:00 18.2 10 Nordeste 38 Norte 0.2 -- -- 79
2020-06-25 20:00:00 18.4 7 Nordeste 32 Noroeste 0.4 -- -- 84
2020-06-25 19:00:00 22.7 15 Norte 28 Nordeste 0 -- -- 62
2020-06-25 18:00:00 25.6 22 Este 40 Este 0 -- -- 47
2020-06-25 17:00:00 30.5 11 Sudoeste 29 Sur 0 -- -- 33
2020-06-25 16:00:00 31.9 15 Sudoeste 28 Sur 0 -- -- 31
2020-06-25 15:00:00 30.2 10 Sur 27 Sur 0 -- -- 35
2020-06-25 14:00:00 30.8 11 Sur 28 Sudoeste 0 -- -- 33
2020-06-25 13:00:00 29.4 17 Sudoeste 30 Sudoeste 0 -- -- 33
2020-06-25 12:00:00 27.4 12 Sudeste 24 Este 0 -- -- 41
2020-06-25 11:00:00 25.3 12 Sudeste 22 Este 0 -- -- 46
2020-06-25 10:00:00 22.7 9 Sudeste 16 Este 0 -- -- 52
2020-06-25 09:00:00 19.3 4 Sudeste 8 Sudeste 0 -- -- 67
2020-06-25 08:00:00 15.2 5 Este 8 Este 0 -- -- 80
2020-06-25 07:00:00 11.4 3 Este 6 Norte 0 -- -- 92
2020-06-25 06:00:00 11.5 4 Noroeste 6 Sudeste 0 -- -- 88
2020-06-25 05:00:00 12.7 5 Este 7 Este 0 -- -- 87
2020-06-25 04:00:00 15.1 3 Sudeste 12 Este 0 -- -- 79
2020-06-25 03:00:00 14.4 4 Nordeste 10 Sudoeste 0 -- -- 80
2020-06-25 02:00:00 17.2 6 Este 21 Este 0 -- -- 66
2020-06-25 01:00:00 19.4 11 Este 23 Este 0 -- -- 57
2020-06-25 00:00:00 18.9 8 Este 12 Este 0 -- -- 61
2020-06-24 23:00:00 20.2 7 Sudeste 14 Este 0 -- -- 57
2020-06-24 22:00:00 20.8 8 Este 11 Este 0 -- -- 56
2020-06-24 21:00:00 24.4 3 Noroeste 13 Sudoeste 0 -- -- 51
2020-06-24 20:00:00 27.6 9 Sudoeste 15 Sudoeste 0 -- -- 32
2020-06-24 19:00:00 29.9 9 Sudoeste 26 Sur 0 -- -- 27
2020-06-24 18:00:00 29.7 12 Sudoeste 27 Oeste 0 -- -- 26
2020-06-24 17:00:00 29.7 5 Este 19 Sudoeste 0 -- -- 29
2020-06-24 16:00:00 24.4 13 Sudoeste 45 Sur 0 -- -- 41
2020-06-24 15:00:00 23.8 31 Sudoeste 50 Sudoeste 0 -- -- 50
2020-06-24 14:00:00 23.9 10 Sudoeste 42 Sudoeste 0 -- -- 38
2020-06-24 13:00:00 23.1 20 Oeste 33 Noroeste 0 -- -- 50
2020-06-24 12:00:00 27.2 10 Oeste 19 Sudoeste 0 -- -- 41
2020-06-24 11:00:00 26 10 Sur 17 Sur 0 -- -- 45
2020-06-24 10:00:00 24.1 0 Calma 11 Este 0 -- -- 55
2020-06-24 09:00:00 20.6 6 Sudeste 14 Sudeste 0 -- -- 65
2020-06-24 08:00:00 16.5 3 Sudeste 6 Este 0 -- -- 80
2020-06-24 07:00:00 12.7 5 Este 9 Nordeste 0 -- -- 89
2020-06-24 06:00:00 12.6 5 Nordeste 9 Nordeste 0 -- -- 90
2020-06-24 05:00:00 13.6 6 Nordeste 8 Nordeste 0 -- -- 86
2020-06-24 04:00:00 15.3 3 Este 9 Norte 0 -- -- 77
2020-06-24 03:00:00 19.8 3 Norte 27 Este 0 -- -- 57
2020-06-24 02:00:00 20.6 17 Oeste 32 Oeste 0 -- -- 54
2020-06-24 01:00:00 19.6 13 Nordeste 26 Noroeste 0 -- -- 59
2020-06-24 00:00:00 20.4 6 Norte 16 Noroeste 0 -- -- 61
2020-06-23 23:00:00 19.8 6 Noroeste 14 Norte 0 -- -- 66
2020-06-23 22:00:00 22.6 4 Este 19 Este 0 -- -- 54
2020-06-23 21:00:00 25.5 12 Este 23 Este 0 -- -- 46
2020-06-23 20:00:00 29.8 11 Sudoeste 19 Sudoeste 0 -- -- 28
2020-06-23 19:00:00 32.9 6 Sudoeste 29 Oeste 0 -- -- 23
2020-06-23 18:00:00 29.5 26 Oeste 38 Sudoeste 0 -- -- 31
2020-06-23 17:00:00 33.3 10 Oeste 24 Oeste 0 -- -- 26
2020-06-23 16:00:00 33.1 12 Sudoeste 27 Sudoeste 0 -- -- 25
2020-06-23 15:00:00 32.7 8 Sudoeste 24 Sudoeste 0 -- -- 27
2020-06-23 14:00:00 30.9 5 Sudoeste 22 Oeste 0 -- -- 28
2020-06-23 13:00:00 30.2 8 Sudoeste 19 Sudoeste 0 -- -- 32
2020-06-23 12:00:00 28.2 7 Este 17 Nordeste 0 -- -- 40
2020-06-23 11:00:00 25.3 8 Este 17 Este 0 -- -- 45
2020-06-23 10:00:00 22.3 10 Sudeste 16 Este 0 -- -- 52
2020-06-23 09:00:00 19.9 3 Este 9 Sudeste 0 -- -- 59
2020-06-23 08:00:00 14.5 0 Calma 4 Este 0 -- -- 79
2020-06-23 07:00:00 9.9 4 Nordeste 8 Nordeste 0 -- -- 93
2020-06-23 06:00:00 9.7 0 Calma 6 Este 0 -- -- 92
2020-06-23 05:00:00 10.6 0 Calma 6 Este 0 -- -- 88
2020-06-23 04:00:00 10.9 5 Este 8 Nordeste 0 -- -- 87
2020-06-23 03:00:00 11.9 3 Nordeste 8 Este 0 -- -- 83
2020-06-23 02:00:00 13.2 3 Este 7 Nordeste 0 -- -- 78
2020-06-23 01:00:00 14.9 3 Nordeste 12 Sudeste 0 -- -- 69
2020-06-23 00:00:00 16.7 7 Este 12 Este 0 -- -- 61
2020-06-22 23:00:00 18.2 8 Este 19 Nordeste 0 -- -- 54
2020-06-22 22:00:00 20.7 12 Este 21 Norte 0 -- -- 46
2020-06-22 21:00:00 26.2 13 Nordeste 23 Nordeste 0 -- -- 34
2020-06-22 20:00:00 29.5 11 Nordeste 19 Nordeste 0 -- -- 27
2020-06-22 19:00:00 31.9 3 Oeste 16 Norte 0 -- -- 21
2020-06-22 18:00:00 30.7 9 Norte 17 Norte 0 -- -- 22
2020-06-22 17:00:00 30.6 6 Sudoeste 22 Este 0 -- -- 23
2020-06-22 16:00:00 29.5 8 Nordeste 21 Este 0 -- -- 25
2020-06-22 15:00:00 28.7 5 Sudeste 17 Nordeste 0 -- -- 27
2020-06-22 14:00:00 28 6 Nordeste 14 Nordeste 0 -- -- 27
2020-06-22 13:00:00 26.9 7 Este 19 Este 0 -- -- 27
2020-06-22 12:00:00 24.2 6 Norte 24 Nordeste 0 -- -- 29
2020-06-22 11:00:00 22.4 11 Nordeste 26 Norte 0 -- -- 44
2020-06-22 10:00:00 20.8 11 Nordeste 18 Nordeste 0 -- -- 56
2020-06-22 09:00:00 18.1 7 Nordeste 14 Nordeste 0 -- -- 67
2020-06-22 08:00:00 14.6 4 Este 11 Este 0 -- -- 80
2020-06-22 07:00:00 12.2 6 Este 25 Nordeste 0 -- -- 88
2020-06-22 06:00:00 12.9 14 Nordeste 22 Nordeste 0 -- -- 85
2020-06-22 05:00:00 12.4 5 Este 21 Este 0 -- -- 84
2020-06-22 04:00:00 13.1 5 Este 14 Nordeste 0 -- -- 81
2020-06-22 03:00:00 14.2 6 Sudeste 23 Este 0 -- -- 75
2020-06-22 02:00:00 14.7 8 Sudeste 34 Nordeste 0 -- -- 72
2020-06-22 01:00:00 15.4 17 Nordeste 39 Norte 0 -- -- 69
2020-06-22 00:00:00 16.4 25 Nordeste 43 Nordeste 0 -- -- 65
2020-06-21 23:00:00 17.5 24 Nordeste 42 Nordeste 0 -- -- 61
2020-06-21 22:00:00 18.9 22 Nordeste 37 Norte 0 -- -- 55
2020-06-21 21:00:00 22.8 23 Nordeste 36 Nordeste 0 -- -- 46
2020-06-21 20:00:00 26.8 15 Norte 26 Norte 0 -- -- 36
2020-06-21 19:00:00 28.8 18 Oeste 35 Oeste 0 -- -- 23
2020-06-21 18:00:00 29.2 18 Oeste 33 Oeste 0 -- -- 27
2020-06-21 17:00:00 29 19 Oeste 36 Noroeste 0 -- -- 30
2020-06-21 16:00:00 28.4 19 Oeste 37 Noroeste 0 -- -- 31
2020-06-21 15:00:00 27.7 14 Oeste 32 Oeste 0 -- -- 32
2020-06-21 14:00:00 26.9 15 Oeste 30 Oeste 0 -- -- 35
2020-06-21 13:00:00 25.5 17 Oeste 27 Oeste 0 -- -- 40
2020-06-21 12:00:00 23.8 13 Oeste 24 Oeste 0 -- -- 39
2020-06-21 11:00:00 21.7 14 Oeste 24 Oeste 0 -- -- 46
2020-06-21 10:00:00 19.1 17 Oeste 27 Oeste 0 -- -- 52
2020-06-21 09:00:00 16.1 5 Oeste 9 Oeste 0 -- -- 75
2020-06-21 08:00:00 12.4 0 Calma 4 Este 0 -- -- 91
2020-06-21 07:00:00 8.1 3 Nordeste 5 Nordeste 0 -- -- 98
2020-06-21 06:00:00 8.5 0 Calma 4 Este 0 -- -- 97
2020-06-21 05:00:00 9.1 3 Este 5 Este 0 -- -- 97
2020-06-21 04:00:00 9.2 0 Calma 12 Noroeste 0 -- -- 96
2020-06-21 03:00:00 10.4 3 Este 7 Oeste 0 -- -- 94
2020-06-21 02:00:00 11.4 2 Nordeste 6 Noroeste 0 -- -- 90
2020-06-21 01:00:00 13.7 7 Este 10 Nordeste 0 -- -- 82
2020-06-21 00:00:00 14.5 7 Este 14 Este 0 -- -- 79
2020-06-20 23:00:00 14.7 0 Calma 15 Nordeste 0 -- -- 74
2020-06-20 22:00:00 19.1 0 Calma 10 Noroeste 0 -- -- 55
2020-06-20 21:00:00 24.9 9 Noroeste 26 Noroeste 0 -- -- 37
2020-06-20 20:00:00 27.6 15 Oeste 27 Noroeste 0 -- -- 29
2020-06-20 19:00:00 28.8 12 Oeste 26 Oeste 0 -- -- 30
2020-06-20 18:00:00 27.5 15 Oeste 26 Sudoeste 0 -- -- 31
2020-06-20 17:00:00 27.8 10 Sudoeste 26 Oeste 0 -- -- 34
2020-06-20 16:00:00 27.3 12 Noroeste 32 Oeste 0 -- -- 35
2020-06-20 15:00:00 26.5 15 Oeste 30 Oeste 0 -- -- 35
2020-06-20 14:00:00 26 13 Sudoeste 27 Oeste 0 -- -- 38
2020-06-20 13:00:00 24.3 13 Oeste 35 Oeste 0 -- -- 37
2020-06-20 12:00:00 23.1 12 Oeste 22 Oeste 0 -- -- 44
2020-06-20 11:00:00 21.3 9 Oeste 16 Oeste 0 -- -- 52
2020-06-20 10:00:00 19.6 3 Sur 6 Sur 0 -- -- 65
2020-06-20 09:00:00 16.1 0 Calma 3 Este 0 -- -- 82
2020-06-20 08:00:00 11.5 4 Este 7 Este 0 -- -- 96
2020-06-20 07:00:00 7.6 4 Este 6 Este 0 -- -- 98
2020-06-20 06:00:00 8 4 Este 5 Este 0 -- -- 97
2020-06-20 05:00:00 7.7 0 Calma 3 Este 0 -- -- 97
2020-06-20 04:00:00 9.4 2 Este 4 Este 0 -- -- 96
2020-06-20 03:00:00 10.4 0 Calma 4 Nordeste 0 -- -- 93
2020-06-20 02:00:00 11.4 0 Calma 4 Noroeste 0 -- -- 92
2020-06-20 01:00:00 12.3 2 Oeste 4 Oeste 0 -- -- 88
2020-06-20 00:00:00 13.6 3 Este 8 Este 0 -- -- 79
2020-06-19 23:00:00 13.2 6 Este 12 Nordeste 0 -- -- 74
2020-06-19 22:00:00 17.4 0 Calma 9 Oeste 0 -- -- 54
2020-06-19 21:00:00 23.5 9 Oeste 21 Oeste 0 -- -- 35
2020-06-19 20:00:00 25.7 14 Oeste 23 Oeste 0 -- -- 31
2020-06-19 19:00:00 26.3 13 Oeste 30 Oeste 0 -- -- 29
2020-06-19 18:00:00 25.9 4 Sudoeste 29 Oeste 0 -- -- 32
2020-06-19 17:00:00 25.7 9 Oeste 29 Oeste 0 -- -- 35
2020-06-19 16:00:00 25.6 14 Oeste 26 Oeste 0 -- -- 36
2020-06-19 15:00:00 23.7 14 Noroeste 27 Noroeste 0 -- -- 50
2020-06-19 14:00:00 23.7 14 Sudoeste 29 Sudoeste 0 -- -- 47
2020-06-19 13:00:00 21.8 8 Sudoeste 21 Sudoeste 0 -- -- 47
2020-06-19 12:00:00 21.4 10 Sudoeste 17 Oeste 0 -- -- 58
2020-06-19 11:00:00 20.2 3 Sudoeste 12 Sudeste 0 -- -- 60
2020-06-19 10:00:00 17.3 8 Sudeste 14 Este 0 -- -- 66
2020-06-19 09:00:00 12.9 0 Calma 6 Oeste 0 -- -- 86
2020-06-19 08:00:00 10.1 0 Calma 3 Noroeste 0 -- -- 96
2020-06-19 07:00:00 7.4 0 Calma 6 Oeste 0 -- -- 98
2020-06-19 06:00:00 6.2 3 Este 4 Este 0 -- -- 98
2020-06-19 05:00:00 6.8 0 Calma 2 Este 0 -- -- 97
2020-06-19 04:00:00 7.6 0 Calma 6 Nordeste 0 -- -- 96
2020-06-19 03:00:00 8.6 3 Sudeste 9 Este 0 -- -- 93
2020-06-19 02:00:00 9.3 5 Este 8 Nordeste 0 -- -- 91
2020-06-19 01:00:00 11 4 Este 11 Este 0 -- -- 85
2020-06-19 00:00:00 12.7 5 Este 12 Este 0 -- -- 79
2020-06-18 23:00:00 13.6 8 Este 17 Nordeste 0 -- -- 76
2020-06-18 22:00:00 15.2 7 Nordeste 22 Este 0 -- -- 72
2020-06-18 21:00:00 19.3 12 Este 24 Nordeste 0 -- -- 58
2020-06-18 20:00:00 18.5 12 Nordeste 29 Este 0 -- -- 64
2020-06-18 19:00:00 21.5 10 Noroeste 31 Nordeste 0 -- -- 51
2020-06-18 18:00:00 22.6 10 Oeste 20 Oeste 0 -- -- 43
2020-06-18 17:00:00 23.5 3 Norte 21 Oeste 0 -- -- 42
2020-06-18 16:00:00 21.8 5 Sur 11 Sudeste 0 -- -- 47
2020-06-18 15:00:00 22.2 5 Nordeste 17 Oeste 0 -- -- 45
2020-06-18 14:00:00 20.7 5 Sudeste 16 Noroeste 0 -- -- 49
2020-06-18 13:00:00 21.1 5 Oeste 14 Sudoeste 0 -- -- 50
2020-06-18 12:00:00 20.1 4 Noroeste 13 Sudeste 0 -- -- 57
2020-06-18 11:00:00 16.2 7 Sudeste 16 Sudeste 0 -- -- 71
2020-06-18 10:00:00 13.8 12 Este 18 Este 0 -- -- 76
2020-06-18 09:00:00 12.4 11 Este 18 Este 0 -- -- 84
2020-06-18 08:00:00 9.6 0 Calma 3 Noroeste 0 -- -- 98
2020-06-18 07:00:00 6.5 0 Calma 5 Este 0 -- -- 98
2020-06-18 06:00:00 6.9 3 Este 6 Este 0 -- -- 96
2020-06-18 05:00:00 8.8 3 Nordeste 19 Este 0 -- -- 94
2020-06-18 04:00:00 10.5 6 Este 27 Este 0 -- -- 91
2020-06-18 03:00:00 10.9 20 Sudeste 32 Este 0.6 -- -- 91
2020-06-18 02:00:00 11.8 9 Este 18 Sudeste 0 -- -- 83
2020-06-18 01:00:00 11.4 3 Sudeste 13 Nordeste 0 -- -- 82
2020-06-18 00:00:00 12 8 Este 23 Nordeste 0 -- -- 79
2020-06-17 23:00:00 12.2 6 Nordeste 17 Nordeste 0 -- -- 77
2020-06-17 22:00:00 13.7 11 Nordeste 22 Nordeste 0 -- -- 71
2020-06-17 21:00:00 20.1 3 Oeste 11 Noroeste 0 -- -- 47
2020-06-17 20:00:00 17.8 7 Oeste 12 Oeste 0 -- -- 48
2020-06-17 19:00:00 19.2 8 Oeste 17 Sudoeste 0 -- -- 43
2020-06-17 18:00:00 21.2 9 Sudoeste 22 Sudoeste 0 -- -- 39
2020-06-17 17:00:00 20 11 Sudoeste 21 Sur 0 -- -- 43
2020-06-17 16:00:00 20 12 Sudoeste 23 Sur 0 -- -- 43
2020-06-17 15:00:00 18.8 11 Oeste 30 Oeste 0 -- -- 43
2020-06-17 14:00:00 18.6 9 Oeste 23 Noroeste 0 -- -- 45
2020-06-17 13:00:00 18.3 12 Oeste 23 Oeste 0 -- -- 45
2020-06-17 12:00:00 16.6 8 Sudoeste 16 Oeste 0 -- -- 55
2020-06-17 11:00:00 15.6 4 Sur 8 Noroeste 0 -- -- 63
2020-06-17 10:00:00 13.8 3 Este 9 Sudeste 0 -- -- 73
2020-06-17 09:00:00 11.5 7 Sudeste 13 Sudeste 0 -- -- 86
2020-06-17 08:00:00 8.6 0 Calma 4 Sur 0 -- -- 98
2020-06-17 07:00:00 6.1 0 Calma 3 Este 0 -- -- 98
2020-06-17 06:00:00 7.4 2 Este 9 Este 0 -- -- 96
2020-06-17 05:00:00 8.2 4 Este 8 Nordeste 0 -- -- 95
2020-06-17 04:00:00 8.7 4 Este 10 Este 0 -- -- 94
2020-06-17 03:00:00 9.6 4 Este 10 Este 0 -- -- 92
2020-06-17 02:00:00 9.8 4 Este 6 Nordeste 0 -- -- 94
2020-06-17 01:00:00 9.6 3 Nordeste 12 Este 0 -- -- 90
2020-06-17 00:00:00 11 4 Este 25 Norte 0 -- -- 87
2020-06-16 23:00:00 12 13 Nordeste 28 Nordeste 0 -- -- 79
2020-06-16 22:00:00 12.6 3 Sur 13 Sudoeste 0 -- -- 82
2020-06-16 21:00:00 15.6 10 Oeste 28 Sudoeste 0 -- -- 64
2020-06-16 20:00:00 16.2 20 Sudoeste 38 Oeste 0 -- -- 58
2020-06-16 19:00:00 17.2 18 Oeste 57 Oeste 0 -- -- 58
2020-06-16 18:00:00 18.6 22 Oeste 35 Oeste 0 -- -- 47
2020-06-16 17:00:00 20.5 22 Oeste 36 Oeste 0 -- -- 43
2020-06-16 16:00:00 20.3 22 Oeste 42 Oeste 0 -- -- 42
2020-06-16 15:00:00 19.6 23 Oeste 41 Oeste 0 -- -- 49
2020-06-16 14:00:00 18.8 22 Oeste 39 Oeste 0 -- -- 52
2020-06-16 13:00:00 18.1 21 Oeste 41 Oeste 0 -- -- 54
2020-06-16 12:00:00 16.4 21 Oeste 36 Oeste 0 -- -- 63
2020-06-16 11:00:00 14 14 Oeste 22 Oeste 0 -- -- 77
2020-06-16 10:00:00 12.6 15 Oeste 26 Oeste 0 -- -- 83
2020-06-16 09:00:00 11.4 13 Oeste 21 Oeste 0.2 -- -- 91
2020-06-16 08:00:00 10.7 11 Oeste 21 Oeste 0.4 -- -- 96
2020-06-16 07:00:00 10.8 10 Oeste 19 Oeste 0.2 -- -- 95
2020-06-16 06:00:00 10.9 12 Oeste 17 Oeste 0.4 -- -- 94
2020-06-16 05:00:00 11 3 Sudoeste 14 Oeste 0.4 -- -- 96
2020-06-16 04:00:00 11.2 7 Oeste 13 Oeste 0.8 -- -- 94
2020-06-16 03:00:00 11.9 5 Oeste 14 Oeste 0.4 -- -- 92
2020-06-16 02:00:00 12.8 4 Oeste 10 Oeste 0.8 -- -- 92
2020-06-16 01:00:00 13.7 4 Sur 9 Sudeste 0.2 -- -- 93
2020-06-16 00:00:00 13.9 0 Calma 4 Este 0 -- -- 94
2020-06-15 23:00:00 14.2 3 Noroeste 6 Oeste 0 -- -- 90
2020-06-15 22:00:00 14.6 4 Oeste 9 Sudoeste 0 -- -- 87
2020-06-15 21:00:00 15.1 7 Sur 13 Sur 0 -- -- 87
2020-06-15 20:00:00 16.6 3 Noroeste 41 Sudoeste 3.2 -- -- 80
2020-06-15 19:00:00 14.7 10 Sudoeste 28 Sudoeste 0.6 -- -- 81
2020-06-15 18:00:00 20.5 10 Oeste 20 Oeste 0 -- -- 53
2020-06-15 17:00:00 21 13 Oeste 26 Oeste 0 -- -- 52
2020-06-15 16:00:00 22.5 13 Oeste 25 Oeste 0 -- -- 47
2020-06-15 15:00:00 21.2 13 Oeste 28 Noroeste 0 -- -- 50
2020-06-15 14:00:00 21.7 10 Oeste 26 Oeste 0 -- -- 48
2020-06-15 13:00:00 19.5 15 Oeste 29 Oeste 0 -- -- 55
2020-06-15 12:00:00 18.2 13 Oeste 26 Oeste 0 -- -- 54
2020-06-15 11:00:00 17 13 Oeste 25 Oeste 0 -- -- 60
2020-06-15 10:00:00 15.3 12 Oeste 22 Oeste 0 -- -- 68
2020-06-15 09:00:00 12.1 12 Oeste 18 Oeste 0 -- -- 81
2020-06-15 08:00:00 8.2 0 Calma 2 Nordeste 0 -- -- 96
2020-06-15 07:00:00 6.5 0 Calma 4 Oeste 0 -- -- 96
2020-06-15 06:00:00 6.7 2 Este 5 Este 0 -- -- 95
2020-06-15 05:00:00 6.9 3 Nordeste 5 Este 0 -- -- 96
2020-06-15 04:00:00 6.6 4 Este 5 Este 0 -- -- 95
2020-06-15 03:00:00 6.8 2 Este 6 Nordeste 0 -- -- 94
2020-06-15 02:00:00 7.4 4 Este 8 Este 0 -- -- 92
2020-06-15 01:00:00 8.8 3 Este 4 Este 0 -- -- 90
2020-06-15 00:00:00 9.8 0 Calma 4 Sur 0 -- -- 86
2020-06-14 23:00:00 11.8 2 Oeste 8 Noroeste 0 -- -- 77
2020-06-14 22:00:00 13 4 Noroeste 12 Noroeste 0 -- -- 71
2020-06-14 21:00:00 16.5 10 Noroeste 20 Noroeste 0 -- -- 54
2020-06-14 20:00:00 18.8 13 Oeste 27 Oeste 0 -- -- 48
2020-06-14 19:00:00 20.8 19 Oeste 28 Oeste 0 -- -- 41
2020-06-14 18:00:00 20.4 11 Oeste 21 Oeste 0 -- -- 44
2020-06-14 17:00:00 19.8 14 Oeste 22 Sudoeste 0 -- -- 47
2020-06-14 16:00:00 20.9 12 Noroeste 23 Oeste 0 -- -- 46
2020-06-14 15:00:00 19.2 12 Noroeste 24 Oeste 0 -- -- 49
2020-06-14 14:00:00 19.5 14 Oeste 22 Sur 0 -- -- 47
2020-06-14 13:00:00 19.6 10 Sudoeste 22 Oeste 0 -- -- 46
2020-06-14 12:00:00 17.3 10 Oeste 22 Oeste 0 -- -- 52
2020-06-14 11:00:00 15.2 14 Oeste 18 Oeste 0 -- -- 59
2020-06-14 10:00:00 13.5 12 Oeste 17 Oeste 0 -- -- 73
2020-06-14 09:00:00 11.1 6 Oeste 9 Oeste 0 -- -- 84
2020-06-14 08:00:00 8.4 0 Calma 0 Calma 0 -- -- 97
2020-06-14 07:00:00 5.9 0 Calma 3 Nordeste 0 -- -- 97
2020-06-14 06:00:00 5.7 0 Calma 2 Este 0 -- -- 96
2020-06-14 05:00:00 7.4 2 Este 4 Este 0 -- -- 95
2020-06-14 04:00:00 7.2 4 Nordeste 6 Nordeste 0 -- -- 94
2020-06-14 03:00:00 7.6 3 Este 4 Nordeste 0 -- -- 94
2020-06-14 02:00:00 7.7 0 Calma 4 Este 0 -- -- 93
2020-06-14 01:00:00 8 2 Sudeste 4 Nordeste 0 -- -- 92
2020-06-14 00:00:00 8.4 3 Este 5 Este 0 -- -- 88
2020-06-13 23:00:00 10.4 2 Sudeste 3 Sudeste 0 -- -- 82
2020-06-13 22:00:00 12.4 0 Calma 11 Oeste 0 -- -- 69
2020-06-13 21:00:00 16 9 Oeste 30 Noroeste 0 -- -- 51
2020-06-13 20:00:00 18.8 14 Noroeste 31 Noroeste 0 -- -- 42
2020-06-13 19:00:00 18.4 21 Oeste 32 Oeste 0 -- -- 42
2020-06-13 18:00:00 18.6 19 Oeste 33 Oeste 0 -- -- 40
2020-06-13 17:00:00 19 24 Oeste 40 Oeste 0 -- -- 44
2020-06-13 16:00:00 18.1 23 Oeste 39 Oeste 0 -- -- 45
2020-06-13 15:00:00 17.8 22 Oeste 42 Oeste 0 -- -- 48
2020-06-13 14:00:00 17.5 27 Oeste 40 Oeste 0 -- -- 46
2020-06-13 13:00:00 16.3 23 Oeste 40 Noroeste 0 -- -- 49
2020-06-13 12:00:00 14 22 Oeste 36 Oeste 0 -- -- 58
2020-06-13 11:00:00 12.3 23 Oeste 38 Oeste 0 -- -- 72
2020-06-13 10:00:00 11.9 25 Oeste 40 Oeste 0 -- -- 70
2020-06-13 09:00:00 10 22 Oeste 35 Oeste 0 -- -- 79
2020-06-13 08:00:00 9 12 Oeste 21 Oeste 0 -- -- 85
2020-06-13 07:00:00 8.8 10 Oeste 17 Sudoeste 0 -- -- 87
2020-06-13 06:00:00 8.3 7 Sudoeste 17 Sudoeste 0 -- -- 89
2020-06-13 05:00:00 8.3 8 Sur 22 Sudoeste 0 -- -- 91
2020-06-13 04:00:00 8.8 9 Sudoeste 21 Sudoeste 0 -- -- 88
2020-06-13 03:00:00 8.7 5 Sudoeste 13 Sudoeste 0 -- -- 88
2020-06-13 02:00:00 8.7 4 Oeste 9 Oeste 0 -- -- 91
2020-06-13 01:00:00 7.9 4 Oeste 10 Oeste 0 -- -- 93
2020-06-13 00:00:00 8.1 0 Calma 4 Oeste 0 -- -- 95
2020-06-12 23:00:00 8.3 2 Sudoeste 12 Oeste 0 -- -- 92
2020-06-12 22:00:00 9 10 Noroeste 25 Oeste 0 -- -- 86
2020-06-12 21:00:00 10.3 6 Noroeste 36 Noroeste 0 -- -- 83
2020-06-12 20:00:00 13.3 16 Noroeste 43 Sudoeste 0.2 -- -- 69
2020-06-12 19:00:00 13.8 20 Sudoeste 42 Sudoeste 0.2 -- -- 63
2020-06-12 18:00:00 16.2 23 Sudoeste 50 Sudoeste 0 -- -- 55
2020-06-12 17:00:00 16.4 29 Sudoeste 58 Sudoeste 0 -- -- 51
2020-06-12 16:00:00 17.4 26 Sudoeste 51 Sudoeste 0 -- -- 50
2020-06-12 15:00:00 15.4 28 Sudoeste 44 Sudoeste 0 -- -- 53
2020-06-12 14:00:00 14.4 27 Sudoeste 50 Sudoeste 0 -- -- 54
2020-06-12 13:00:00 13.1 24 Sudoeste 38 Sudoeste 0 -- -- 59
2020-06-12 12:00:00 11.5 22 Sudoeste 41 Sudoeste 0 -- -- 64
2020-06-12 11:00:00 10.9 19 Sudoeste 37 Sur 0 -- -- 67
2020-06-12 10:00:00 10 15 Sudoeste 30 Sudoeste 0 -- -- 72
2020-06-12 09:00:00 8.4 14 Sudoeste 25 Sudoeste 0 -- -- 76
2020-06-12 08:00:00 7.3 10 Sudoeste 19 Sudoeste 0 -- -- 81
2020-06-12 07:00:00 5.6 9 Sudoeste 13 Sur 0 -- -- 81
2020-06-12 06:00:00 4.3 3 Sudeste 23 Oeste 0 -- -- 89
2020-06-12 05:00:00 6.5 11 Oeste 30 Oeste 0 -- -- 81
2020-06-12 04:00:00 7 16 Sudoeste 25 Sudoeste 0 -- -- 81
2020-06-12 03:00:00 6.3 8 Oeste 18 Oeste 0 -- -- 85
2020-06-12 02:00:00 7.1 7 Oeste 27 Oeste 0 -- -- 82
2020-06-12 01:00:00 9.6 18 Sudoeste 32 Oeste 0 -- -- 71
2020-06-12 00:00:00 10.4 18 Oeste 31 Oeste 0 -- -- 74
2020-06-11 23:00:00 11.9 13 Sudoeste 23 Sudoeste 0 -- -- 79
2020-06-11 22:00:00 11.4 15 Sur 36 Sudoeste 0.6 -- -- 87
2020-06-11 21:00:00 12.5 27 Oeste 45 Oeste 0 -- -- 77
2020-06-11 20:00:00 15.9 16 Oeste 41 Oeste 0 -- -- 53
2020-06-11 19:00:00 19.5 22 Oeste 46 Oeste 0 -- -- 44
2020-06-11 18:00:00 18.7 27 Oeste 46 Oeste 0 -- -- 43
2020-06-11 17:00:00 20.1 26 Oeste 41 Oeste 0 -- -- 43
2020-06-11 16:00:00 16.6 25 Oeste 39 Oeste 0 -- -- 60
2020-06-11 15:00:00 16.6 15 Oeste 24 Oeste 0 -- -- 61
2020-06-11 14:00:00 15.4 13 Oeste 30 Oeste 0 -- -- 64
2020-06-11 13:00:00 16.6 20 Oeste 33 Oeste 0 -- -- 61
2020-06-11 12:00:00 16.1 19 Noroeste 30 Oeste 0 -- -- 63
2020-06-11 11:00:00 17.9 17 Oeste 30 Oeste 0 -- -- 57
2020-06-11 10:00:00 15.6 18 Oeste 27 Oeste 0 -- -- 61
2020-06-11 09:00:00 12.5 3 Oeste 5 Oeste 0 -- -- 77
2020-06-11 08:00:00 8.8 0 Calma 3 Sudeste 0 -- -- 93
2020-06-11 07:00:00 5.8 0 Calma 5 Este 0 -- -- 96
2020-06-11 06:00:00 7.1 0 Calma 4 Nordeste 0 -- -- 95
2020-06-11 05:00:00 7.2 3 Nordeste 6 Nordeste 0 -- -- 93
2020-06-11 04:00:00 8.8 5 Este 13 Sudeste 0 -- -- 85
2020-06-11 03:00:00 10.9 9 Sudeste 19 Sudeste 0 -- -- 75
2020-06-11 02:00:00 11 11 Sudeste 21 Este 0 -- -- 75
2020-06-11 01:00:00 11.1 9 Este 15 Sudeste 0 -- -- 76
2020-06-11 00:00:00 10.9 8 Este 12 Este 0 -- -- 81